sensor_id;sensor_type;location;lat;lon;timestamp;P1;durP1;ratioP1;P2;durP2;ratioP2
4980;SDS011;2507;50.392;7.482;2024-01-11T00:00:12;41.63;;;23.37;;
4980;SDS011;2507;50.392;7.482;2024-01-11T00:02:38;42.30;;;21.57;;
4980;SDS011;2507;50.392;7.482;2024-01-11T00:05:03;45.43;;;22.83;;
4980;SDS011;2507;50.392;7.482;2024-01-11T00:07:29;38.00;;;22.50;;
4980;SDS011;2507;50.392;7.482;2024-01-11T00:09:54;45.23;;;23.70;;
4980;SDS011;2507;50.392;7.482;2024-01-11T00:12:19;40.80;;;21.80;;
4980;SDS011;2507;50.392;7.482;2024-01-11T00:14:45;41.20;;;23.30;;
4980;SDS011;2507;50.392;7.482;2024-01-11T00:17:10;38.07;;;22.27;;
4980;SDS011;2507;50.392;7.482;2024-01-11T00:19:35;39.97;;;22.33;;
4980;SDS011;2507;50.392;7.482;2024-01-11T00:22:00;46.10;;;25.10;;
4980;SDS011;2507;50.392;7.482;2024-01-11T00:24:26;39.27;;;20.97;;
4980;SDS011;2507;50.392;7.482;2024-01-11T00:26:51;39.10;;;24.70;;
4980;SDS011;2507;50.392;7.482;2024-01-11T00:29:17;41.13;;;23.20;;
4980;SDS011;2507;50.392;7.482;2024-01-11T00:31:42;39.30;;;22.37;;
4980;SDS011;2507;50.392;7.482;2024-01-11T00:34:07;36.30;;;21.80;;
4980;SDS011;2507;50.392;7.482;2024-01-11T00:36:32;44.87;;;23.47;;
4980;SDS011;2507;50.392;7.482;2024-01-11T00:38:59;38.07;;;21.90;;
4980;SDS011;2507;50.392;7.482;2024-01-11T00:41:25;34.80;;;21.40;;
4980;SDS011;2507;50.392;7.482;2024-01-11T00:43:50;36.43;;;21.23;;
4980;SDS011;2507;50.392;7.482;2024-01-11T00:46:16;37.27;;;20.77;;
4980;SDS011;2507;50.392;7.482;2024-01-11T00:48:41;37.50;;;22.13;;
4980;SDS011;2507;50.392;7.482;2024-01-11T00:51:06;39.37;;;23.37;;
4980;SDS011;2507;50.392;7.482;2024-01-11T00:53:32;37.30;;;22.10;;
4980;SDS011;2507;50.392;7.482;2024-01-11T00:55:58;37.70;;;22.13;;
4980;SDS011;2507;50.392;7.482;2024-01-11T00:58:23;37.13;;;22.70;;
4980;SDS011;2507;50.392;7.482;2024-01-11T01:00:48;38.40;;;21.47;;
4980;SDS011;2507;50.392;7.482;2024-01-11T01:03:14;41.90;;;22.90;;
4980;SDS011;2507;50.392;7.482;2024-01-11T01:05:41;35.00;;;22.40;;
4980;SDS011;2507;50.392;7.482;2024-01-11T01:08:06;38.70;;;22.07;;
4980;SDS011;2507;50.392;7.482;2024-01-11T01:10:31;42.57;;;23.30;;
4980;SDS011;2507;50.392;7.482;2024-01-11T01:12:57;46.27;;;24.13;;
4980;SDS011;2507;50.392;7.482;2024-01-11T01:15:22;40.30;;;23.27;;
4980;SDS011;2507;50.392;7.482;2024-01-11T01:17:47;41.60;;;21.87;;
4980;SDS011;2507;50.392;7.482;2024-01-11T01:20:12;39.20;;;22.07;;
4980;SDS011;2507;50.392;7.482;2024-01-11T01:22:38;37.47;;;20.80;;
4980;SDS011;2507;50.392;7.482;2024-01-11T01:25:03;37.50;;;21.53;;
4980;SDS011;2507;50.392;7.482;2024-01-11T01:27:28;34.90;;;21.90;;
4980;SDS011;2507;50.392;7.482;2024-01-11T01:29:54;38.80;;;22.77;;
4980;SDS011;2507;50.392;7.482;2024-01-11T01:32:19;34.70;;;20.93;;
4980;SDS011;2507;50.392;7.482;2024-01-11T01:34:44;40.97;;;22.83;;
4980;SDS011;2507;50.392;7.482;2024-01-11T01:37:10;45.63;;;24.27;;
4980;SDS011;2507;50.392;7.482;2024-01-11T01:39:37;37.53;;;20.03;;
4980;SDS011;2507;50.392;7.482;2024-01-11T01:42:03;36.27;;;21.40;;
4980;SDS011;2507;50.392;7.482;2024-01-11T01:44:28;39.40;;;21.40;;
4980;SDS011;2507;50.392;7.482;2024-01-11T01:46:54;35.40;;;20.83;;
4980;SDS011;2507;50.392;7.482;2024-01-11T01:49:19;38.00;;;22.43;;
4980;SDS011;2507;50.392;7.482;2024-01-11T01:51:47;35.17;;;22.27;;
4980;SDS011;2507;50.392;7.482;2024-01-11T01:54:13;41.20;;;22.60;;
4980;SDS011;2507;50.392;7.482;2024-01-11T01:56:38;38.23;;;22.93;;
4980;SDS011;2507;50.392;7.482;2024-01-11T01:59:03;35.30;;;21.80;;
4980;SDS011;2507;50.392;7.482;2024-01-11T02:01:29;33.73;;;21.13;;
4980;SDS011;2507;50.392;7.482;2024-01-11T02:03:55;34.07;;;21.13;;
4980;SDS011;2507;50.392;7.482;2024-01-11T02:06:21;36.63;;;22.23;;
4980;SDS011;2507;50.392;7.482;2024-01-11T02:08:51;35.27;;;21.80;;
4980;SDS011;2507;50.392;7.482;2024-01-11T02:11:19;38.90;;;22.13;;
4980;SDS011;2507;50.392;7.482;2024-01-11T02:13:45;41.30;;;22.00;;
4980;SDS011;2507;50.392;7.482;2024-01-11T02:16:11;38.80;;;22.20;;
4980;SDS011;2507;50.392;7.482;2024-01-11T02:18:38;38.97;;;22.67;;
4980;SDS011;2507;50.392;7.482;2024-01-11T02:21:04;41.97;;;21.80;;
4980;SDS011;2507;50.392;7.482;2024-01-11T02:23:33;36.73;;;21.67;;
4980;SDS011;2507;50.392;7.482;2024-01-11T02:26:05;38.67;;;22.10;;
4980;SDS011;2507;50.392;7.482;2024-01-11T02:28:30;35.97;;;21.90;;
4980;SDS011;2507;50.392;7.482;2024-01-11T02:30:56;39.17;;;21.87;;
4980;SDS011;2507;50.392;7.482;2024-01-11T02:33:21;34.47;;;20.50;;
4980;SDS011;2507;50.392;7.482;2024-01-11T02:35:47;37.93;;;22.00;;
4980;SDS011;2507;50.392;7.482;2024-01-11T02:38:13;37.63;;;21.97;;
4980;SDS011;2507;50.392;7.482;2024-01-11T02:40:38;37.27;;;21.60;;
4980;SDS011;2507;50.392;7.482;2024-01-11T02:43:08;37.07;;;21.63;;
4980;SDS011;2507;50.392;7.482;2024-01-11T02:45:35;39.70;;;21.57;;
4980;SDS011;2507;50.392;7.482;2024-01-11T02:48:00;39.57;;;22.20;;
4980;SDS011;2507;50.392;7.482;2024-01-11T02:50:26;40.53;;;23.80;;
4980;SDS011;2507;50.392;7.482;2024-01-11T02:52:51;34.30;;;20.27;;
4980;SDS011;2507;50.392;7.482;2024-01-11T02:55:16;36.90;;;21.30;;
4980;SDS011;2507;50.392;7.482;2024-01-11T02:57:42;43.60;;;22.80;;
4980;SDS011;2507;50.392;7.482;2024-01-11T03:00:07;39.30;;;22.90;;
4980;SDS011;2507;50.392;7.482;2024-01-11T03:02:32;38.33;;;22.20;;
4980;SDS011;2507;50.392;7.482;2024-01-11T03:04:58;36.07;;;21.60;;
4980;SDS011;2507;50.392;7.482;2024-01-11T03:07:23;36.67;;;21.70;;
4980;SDS011;2507;50.392;7.482;2024-01-11T03:09:48;39.13;;;23.83;;
4980;SDS011;2507;50.392;7.482;2024-01-11T03:12:14;41.70;;;23.20;;
4980;SDS011;2507;50.392;7.482;2024-01-11T03:14:39;36.03;;;22.43;;
4980;SDS011;2507;50.392;7.482;2024-01-11T03:17:04;37.57;;;22.63;;
4980;SDS011;2507;50.392;7.482;2024-01-11T03:19:30;34.27;;;20.70;;
4980;SDS011;2507;50.392;7.482;2024-01-11T03:21:55;34.23;;;20.93;;
4980;SDS011;2507;50.392;7.482;2024-01-11T03:24:20;35.53;;;21.50;;
4980;SDS011;2507;50.392;7.482;2024-01-11T03:26:47;39.60;;;21.93;;
4980;SDS011;2507;50.392;7.482;2024-01-11T03:29:13;34.43;;;20.03;;
4980;SDS011;2507;50.392;7.482;2024-01-11T03:31:38;37.17;;;22.27;;
4980;SDS011;2507;50.392;7.482;2024-01-11T03:34:06;36.77;;;20.20;;
4980;SDS011;2507;50.392;7.482;2024-01-11T03:36:32;36.17;;;21.43;;
4980;SDS011;2507;50.392;7.482;2024-01-11T03:38:57;38.90;;;21.87;;
4980;SDS011;2507;50.392;7.482;2024-01-11T03:41:22;36.50;;;21.30;;
4980;SDS011;2507;50.392;7.482;2024-01-11T03:43:50;39.33;;;22.20;;
4980;SDS011;2507;50.392;7.482;2024-01-11T03:46:15;35.83;;;21.10;;
4980;SDS011;2507;50.392;7.482;2024-01-11T03:48:41;47.33;;;23.27;;
4980;SDS011;2507;50.392;7.482;2024-01-11T03:51:06;33.53;;;20.57;;
4980;SDS011;2507;50.392;7.482;2024-01-11T03:53:34;30.83;;;19.53;;
4980;SDS011;2507;50.392;7.482;2024-01-11T03:56:01;34.80;;;19.93;;
4980;SDS011;2507;50.392;7.482;2024-01-11T03:58:26;39.00;;;21.07;;
4980;SDS011;2507;50.392;7.482;2024-01-11T04:00:52;36.63;;;21.23;;
4980;SDS011;2507;50.392;7.482;2024-01-11T04:03:17;38.87;;;21.77;;
4980;SDS011;2507;50.392;7.482;2024-01-11T04:05:42;40.00;;;22.17;;
4980;SDS011;2507;50.392;7.482;2024-01-11T04:08:07;48.87;;;22.83;;
4980;SDS011;2507;50.392;7.482;2024-01-11T04:10:33;38.80;;;20.43;;
4980;SDS011;2507;50.392;7.482;2024-01-11T04:12:58;44.17;;;23.00;;
4980;SDS011;2507;50.392;7.482;2024-01-11T04:15:24;40.53;;;20.47;;
4980;SDS011;2507;50.392;7.482;2024-01-11T04:17:49;36.50;;;22.17;;
4980;SDS011;2507;50.392;7.482;2024-01-11T04:20:14;38.40;;;21.67;;
4980;SDS011;2507;50.392;7.482;2024-01-11T04:22:40;36.03;;;21.03;;
4980;SDS011;2507;50.392;7.482;2024-01-11T04:25:05;34.60;;;20.80;;
4980;SDS011;2507;50.392;7.482;2024-01-11T04:27:31;36.43;;;21.10;;
4980;SDS011;2507;50.392;7.482;2024-01-11T04:29:56;38.20;;;21.53;;
4980;SDS011;2507;50.392;7.482;2024-01-11T04:32:22;33.53;;;20.40;;
4980;SDS011;2507;50.392;7.482;2024-01-11T04:34:47;31.87;;;20.60;;
4980;SDS011;2507;50.392;7.482;2024-01-11T04:37:12;41.03;;;22.07;;
4980;SDS011;2507;50.392;7.482;2024-01-11T04:39:38;35.67;;;21.37;;
4980;SDS011;2507;50.392;7.482;2024-01-11T04:42:03;38.53;;;22.27;;
4980;SDS011;2507;50.392;7.482;2024-01-11T04:44:28;33.87;;;20.73;;
4980;SDS011;2507;50.392;7.482;2024-01-11T04:46:54;36.37;;;20.83;;
4980;SDS011;2507;50.392;7.482;2024-01-11T04:49:19;38.40;;;21.73;;
4980;SDS011;2507;50.392;7.482;2024-01-11T04:51:44;38.63;;;21.97;;
4980;SDS011;2507;50.392;7.482;2024-01-11T04:54:09;39.07;;;21.97;;
4980;SDS011;2507;50.392;7.482;2024-01-11T04:56:35;38.07;;;20.80;;
4980;SDS011;2507;50.392;7.482;2024-01-11T04:59:00;40.73;;;20.70;;
4980;SDS011;2507;50.392;7.482;2024-01-11T05:01:25;36.30;;;20.77;;
4980;SDS011;2507;50.392;7.482;2024-01-11T05:03:51;32.77;;;19.10;;
4980;SDS011;2507;50.392;7.482;2024-01-11T05:06:19;34.13;;;20.50;;
4980;SDS011;2507;50.392;7.482;2024-01-11T05:08:46;42.40;;;20.27;;
4980;SDS011;2507;50.392;7.482;2024-01-11T05:11:16;37.37;;;21.07;;
4980;SDS011;2507;50.392;7.482;2024-01-11T05:13:42;38.37;;;21.23;;
4980;SDS011;2507;50.392;7.482;2024-01-11T05:16:08;34.10;;;20.20;;
4980;SDS011;2507;50.392;7.482;2024-01-11T05:18:43;42.40;;;19.97;;
4980;SDS011;2507;50.392;7.482;2024-01-11T05:21:08;30.90;;;20.00;;
4980;SDS011;2507;50.392;7.482;2024-01-11T05:23:34;41.33;;;22.13;;
4980;SDS011;2507;50.392;7.482;2024-01-11T05:25:59;44.23;;;22.43;;
4980;SDS011;2507;50.392;7.482;2024-01-11T05:28:25;43.30;;;21.10;;
4980;SDS011;2507;50.392;7.482;2024-01-11T05:30:50;37.70;;;20.90;;
4980;SDS011;2507;50.392;7.482;2024-01-11T05:33:15;37.73;;;20.60;;
4980;SDS011;2507;50.392;7.482;2024-01-11T05:35:40;32.20;;;19.17;;
4980;SDS011;2507;50.392;7.482;2024-01-11T05:38:06;35.53;;;19.47;;
4980;SDS011;2507;50.392;7.482;2024-01-11T05:40:31;37.90;;;21.20;;
4980;SDS011;2507;50.392;7.482;2024-01-11T05:42:56;36.70;;;20.93;;
4980;SDS011;2507;50.392;7.482;2024-01-11T05:45:21;37.37;;;21.13;;
4980;SDS011;2507;50.392;7.482;2024-01-11T05:47:47;33.03;;;19.20;;
4980;SDS011;2507;50.392;7.482;2024-01-11T05:50:12;37.00;;;20.27;;
4980;SDS011;2507;50.392;7.482;2024-01-11T05:52:37;34.70;;;19.33;;
4980;SDS011;2507;50.392;7.482;2024-01-11T05:55:03;32.37;;;19.07;;
4980;SDS011;2507;50.392;7.482;2024-01-11T05:57:28;36.60;;;20.43;;
4980;SDS011;2507;50.392;7.482;2024-01-11T05:59:53;36.10;;;21.60;;
4980;SDS011;2507;50.392;7.482;2024-01-11T06:02:19;40.07;;;22.80;;
4980;SDS011;2507;50.392;7.482;2024-01-11T06:04:45;37.40;;;22.20;;
4980;SDS011;2507;50.392;7.482;2024-01-11T06:07:11;46.03;;;22.93;;
4980;SDS011;2507;50.392;7.482;2024-01-11T06:09:37;39.07;;;22.00;;
4980;SDS011;2507;50.392;7.482;2024-01-11T06:12:02;42.20;;;22.13;;
4980;SDS011;2507;50.392;7.482;2024-01-11T06:14:27;41.57;;;23.30;;
4980;SDS011;2507;50.392;7.482;2024-01-11T06:16:53;42.87;;;23.20;;
4980;SDS011;2507;50.392;7.482;2024-01-11T06:19:18;39.07;;;22.10;;
4980;SDS011;2507;50.392;7.482;2024-01-11T06:21:43;41.63;;;22.97;;
4980;SDS011;2507;50.392;7.482;2024-01-11T06:24:08;43.87;;;23.50;;
4980;SDS011;2507;50.392;7.482;2024-01-11T06:26:34;38.63;;;20.80;;
4980;SDS011;2507;50.392;7.482;2024-01-11T06:28:59;36.83;;;20.70;;
4980;SDS011;2507;50.392;7.482;2024-01-11T06:31:24;40.10;;;20.90;;
4980;SDS011;2507;50.392;7.482;2024-01-11T06:33:49;38.37;;;20.87;;
4980;SDS011;2507;50.392;7.482;2024-01-11T06:36:15;39.27;;;20.93;;
4980;SDS011;2507;50.392;7.482;2024-01-11T06:38:40;31.63;;;20.50;;
4980;SDS011;2507;50.392;7.482;2024-01-11T06:41:06;39.30;;;21.83;;
4980;SDS011;2507;50.392;7.482;2024-01-11T06:43:31;39.47;;;22.13;;
4980;SDS011;2507;50.392;7.482;2024-01-11T06:45:56;41.50;;;20.73;;
4980;SDS011;2507;50.392;7.482;2024-01-11T06:48:22;45.10;;;22.60;;
4980;SDS011;2507;50.392;7.482;2024-01-11T06:50:47;44.73;;;22.13;;
4980;SDS011;2507;50.392;7.482;2024-01-11T06:53:13;36.90;;;21.33;;
4980;SDS011;2507;50.392;7.482;2024-01-11T06:55:38;41.03;;;24.33;;
4980;SDS011;2507;50.392;7.482;2024-01-11T06:58:05;42.50;;;22.67;;
4980;SDS011;2507;50.392;7.482;2024-01-11T07:00:31;40.53;;;22.60;;
4980;SDS011;2507;50.392;7.482;2024-01-11T07:02:56;42.83;;;22.63;;
4980;SDS011;2507;50.392;7.482;2024-01-11T07:05:21;40.80;;;22.27;;
4980;SDS011;2507;50.392;7.482;2024-01-11T07:07:46;38.40;;;22.47;;
4980;SDS011;2507;50.392;7.482;2024-01-11T07:10:12;45.13;;;23.80;;
4980;SDS011;2507;50.392;7.482;2024-01-11T07:12:37;40.17;;;23.30;;
4980;SDS011;2507;50.392;7.482;2024-01-11T07:15:04;40.13;;;21.87;;
4980;SDS011;2507;50.392;7.482;2024-01-11T07:17:29;40.00;;;22.93;;
4980;SDS011;2507;50.392;7.482;2024-01-11T07:19:55;44.10;;;22.70;;
4980;SDS011;2507;50.392;7.482;2024-01-11T07:22:20;42.63;;;23.47;;
4980;SDS011;2507;50.392;7.482;2024-01-11T07:24:45;45.13;;;24.70;;
4980;SDS011;2507;50.392;7.482;2024-01-11T07:27:11;36.30;;;21.00;;
4980;SDS011;2507;50.392;7.482;2024-01-11T07:29:36;40.23;;;21.73;;
4980;SDS011;2507;50.392;7.482;2024-01-11T07:32:01;43.70;;;21.77;;
4980;SDS011;2507;50.392;7.482;2024-01-11T07:34:28;38.43;;;22.10;;
4980;SDS011;2507;50.392;7.482;2024-01-11T07:36:54;41.00;;;22.60;;
4980;SDS011;2507;50.392;7.482;2024-01-11T07:39:19;35.80;;;20.43;;
4980;SDS011;2507;50.392;7.482;2024-01-11T07:41:45;39.73;;;22.23;;
4980;SDS011;2507;50.392;7.482;2024-01-11T07:44:10;39.83;;;22.80;;
4980;SDS011;2507;50.392;7.482;2024-01-11T07:46:35;41.70;;;22.30;;
4980;SDS011;2507;50.392;7.482;2024-01-11T07:49:01;41.93;;;22.67;;
4980;SDS011;2507;50.392;7.482;2024-01-11T07:51:27;53.50;;;26.20;;
4980;SDS011;2507;50.392;7.482;2024-01-11T07:53:53;59.40;;;28.67;;
4980;SDS011;2507;50.392;7.482;2024-01-11T07:56:18;65.30;;;31.97;;
4980;SDS011;2507;50.392;7.482;2024-01-11T07:58:43;53.87;;;27.90;;
4980;SDS011;2507;50.392;7.482;2024-01-11T08:01:09;64.20;;;32.97;;
4980;SDS011;2507;50.392;7.482;2024-01-11T08:03:34;67.03;;;35.30;;
4980;SDS011;2507;50.392;7.482;2024-01-11T08:06:00;59.30;;;30.90;;
4980;SDS011;2507;50.392;7.482;2024-01-11T08:08:26;63.83;;;30.87;;
4980;SDS011;2507;50.392;7.482;2024-01-11T08:10:51;54.97;;;30.00;;
4980;SDS011;2507;50.392;7.482;2024-01-11T08:13:17;62.17;;;31.10;;
4980;SDS011;2507;50.392;7.482;2024-01-11T08:15:43;53.20;;;29.93;;
4980;SDS011;2507;50.392;7.482;2024-01-11T08:18:08;50.03;;;27.70;;
4980;SDS011;2507;50.392;7.482;2024-01-11T08:20:34;53.63;;;27.53;;
4980;SDS011;2507;50.392;7.482;2024-01-11T08:22:59;51.17;;;28.40;;
4980;SDS011;2507;50.392;7.482;2024-01-11T08:25:24;53.43;;;28.40;;
4980;SDS011;2507;50.392;7.482;2024-01-11T08:27:49;58.40;;;30.73;;
4980;SDS011;2507;50.392;7.482;2024-01-11T08:30:15;47.10;;;25.97;;
4980;SDS011;2507;50.392;7.482;2024-01-11T08:32:40;53.60;;;27.70;;
4980;SDS011;2507;50.392;7.482;2024-01-11T08:35:07;51.00;;;28.03;;
4980;SDS011;2507;50.392;7.482;2024-01-11T08:37:34;50.90;;;26.43;;
4980;SDS011;2507;50.392;7.482;2024-01-11T08:40:00;47.67;;;25.77;;
4980;SDS011;2507;50.392;7.482;2024-01-11T08:42:25;58.47;;;27.97;;
4980;SDS011;2507;50.392;7.482;2024-01-11T08:44:51;50.07;;;27.07;;
4980;SDS011;2507;50.392;7.482;2024-01-11T08:47:17;61.63;;;27.17;;
4980;SDS011;2507;50.392;7.482;2024-01-11T08:49:42;52.03;;;27.27;;
4980;SDS011;2507;50.392;7.482;2024-01-11T08:52:08;43.40;;;24.37;;
4980;SDS011;2507;50.392;7.482;2024-01-11T08:54:33;47.10;;;25.57;;
4980;SDS011;2507;50.392;7.482;2024-01-11T08:56:59;67.80;;;30.63;;
4980;SDS011;2507;50.392;7.482;2024-01-11T08:59:24;58.93;;;31.00;;
4980;SDS011;2507;50.392;7.482;2024-01-11T09:01:50;55.57;;;31.80;;
4980;SDS011;2507;50.392;7.482;2024-01-11T09:04:16;53.30;;;30.47;;
4980;SDS011;2507;50.392;7.482;2024-01-11T09:06:42;59.63;;;32.87;;
4980;SDS011;2507;50.392;7.482;2024-01-11T09:09:08;66.03;;;30.80;;
4980;SDS011;2507;50.392;7.482;2024-01-11T09:11:35;46.13;;;27.43;;
4980;SDS011;2507;50.392;7.482;2024-01-11T09:14:00;54.13;;;27.60;;
4980;SDS011;2507;50.392;7.482;2024-01-11T09:16:27;54.60;;;27.97;;
4980;SDS011;2507;50.392;7.482;2024-01-11T09:18:52;47.37;;;27.03;;
4980;SDS011;2507;50.392;7.482;2024-01-11T09:21:18;50.17;;;26.90;;
4980;SDS011;2507;50.392;7.482;2024-01-11T09:23:43;46.30;;;26.27;;
4980;SDS011;2507;50.392;7.482;2024-01-11T09:26:09;44.47;;;26.80;;
4980;SDS011;2507;50.392;7.482;2024-01-11T09:28:34;44.50;;;25.00;;
4980;SDS011;2507;50.392;7.482;2024-01-11T09:30:59;48.93;;;27.87;;
4980;SDS011;2507;50.392;7.482;2024-01-11T09:33:25;53.67;;;28.00;;
4980;SDS011;2507;50.392;7.482;2024-01-11T09:35:51;47.97;;;27.73;;
4980;SDS011;2507;50.392;7.482;2024-01-11T09:38:16;46.80;;;27.00;;
4980;SDS011;2507;50.392;7.482;2024-01-11T09:40:41;51.00;;;28.67;;
4980;SDS011;2507;50.392;7.482;2024-01-11T09:43:06;54.10;;;30.73;;
4980;SDS011;2507;50.392;7.482;2024-01-11T09:45:34;45.90;;;27.47;;
4980;SDS011;2507;50.392;7.482;2024-01-11T09:48:01;49.37;;;28.00;;
4980;SDS011;2507;50.392;7.482;2024-01-11T09:50:28;43.50;;;25.87;;
4980;SDS011;2507;50.392;7.482;2024-01-11T09:52:53;47.07;;;25.93;;
4980;SDS011;2507;50.392;7.482;2024-01-11T09:55:18;40.33;;;26.23;;
4980;SDS011;2507;50.392;7.482;2024-01-11T09:57:44;47.70;;;26.47;;
4980;SDS011;2507;50.392;7.482;2024-01-11T10:00:18;51.97;;;27.27;;
4980;SDS011;2507;50.392;7.482;2024-01-11T10:02:47;47.27;;;26.93;;
4980;SDS011;2507;50.392;7.482;2024-01-11T10:05:12;44.27;;;26.27;;
4980;SDS011;2507;50.392;7.482;2024-01-11T10:07:39;54.50;;;30.87;;
4980;SDS011;2507;50.392;7.482;2024-01-11T10:10:04;56.10;;;34.47;;
4980;SDS011;2507;50.392;7.482;2024-01-11T10:12:32;50.23;;;29.20;;
4980;SDS011;2507;50.392;7.482;2024-01-11T10:15:06;43.57;;;28.50;;
4980;SDS011;2507;50.392;7.482;2024-01-11T10:17:34;44.77;;;27.73;;
4980;SDS011;2507;50.392;7.482;2024-01-11T10:20:00;50.83;;;29.20;;
4980;SDS011;2507;50.392;7.482;2024-01-11T10:22:26;50.33;;;29.50;;
4980;SDS011;2507;50.392;7.482;2024-01-11T10:25:03;58.13;;;27.97;;
4980;SDS011;2507;50.392;7.482;2024-01-11T10:27:32;48.70;;;26.77;;
4980;SDS011;2507;50.392;7.482;2024-01-11T10:29:58;48.43;;;28.67;;
4980;SDS011;2507;50.392;7.482;2024-01-11T10:32:23;46.93;;;29.00;;
4980;SDS011;2507;50.392;7.482;2024-01-11T10:34:53;50.37;;;28.73;;
4980;SDS011;2507;50.392;7.482;2024-01-11T10:37:18;44.63;;;27.27;;
4980;SDS011;2507;50.392;7.482;2024-01-11T10:39:44;51.40;;;28.30;;
4980;SDS011;2507;50.392;7.482;2024-01-11T10:42:11;47.53;;;27.23;;
4980;SDS011;2507;50.392;7.482;2024-01-11T10:44:38;47.27;;;27.80;;
4980;SDS011;2507;50.392;7.482;2024-01-11T10:47:09;44.17;;;27.47;;
4980;SDS011;2507;50.392;7.482;2024-01-11T10:49:36;43.47;;;28.20;;
4980;SDS011;2507;50.392;7.482;2024-01-11T10:52:05;47.20;;;27.00;;
4980;SDS011;2507;50.392;7.482;2024-01-11T10:54:33;49.27;;;27.67;;
4980;SDS011;2507;50.392;7.482;2024-01-11T10:56:59;47.33;;;26.90;;
4980;SDS011;2507;50.392;7.482;2024-01-11T10:59:26;52.60;;;27.77;;
4980;SDS011;2507;50.392;7.482;2024-01-11T11:01:52;45.33;;;27.13;;
4980;SDS011;2507;50.392;7.482;2024-01-11T11:04:19;46.50;;;29.43;;
4980;SDS011;2507;50.392;7.482;2024-01-11T11:06:47;41.13;;;25.57;;
4980;SDS011;2507;50.392;7.482;2024-01-11T11:09:15;46.63;;;26.27;;
4980;SDS011;2507;50.392;7.482;2024-01-11T11:11:42;46.33;;;27.23;;
4980;SDS011;2507;50.392;7.482;2024-01-11T11:14:07;38.97;;;26.00;;
4980;SDS011;2507;50.392;7.482;2024-01-11T11:16:35;40.97;;;26.83;;
4980;SDS011;2507;50.392;7.482;2024-01-11T11:19:00;52.97;;;31.87;;
4980;SDS011;2507;50.392;7.482;2024-01-11T11:21:25;47.97;;;30.23;;
4980;SDS011;2507;50.392;7.482;2024-01-11T11:23:51;49.00;;;27.60;;
4980;SDS011;2507;50.392;7.482;2024-01-11T11:26:17;55.13;;;29.80;;
4980;SDS011;2507;50.392;7.482;2024-01-11T11:28:42;44.53;;;27.93;;
4980;SDS011;2507;50.392;7.482;2024-01-11T11:31:08;41.37;;;26.57;;
4980;SDS011;2507;50.392;7.482;2024-01-11T11:33:36;45.87;;;28.40;;
4980;SDS011;2507;50.392;7.482;2024-01-11T11:36:01;45.63;;;27.90;;
4980;SDS011;2507;50.392;7.482;2024-01-11T11:38:28;44.77;;;28.60;;
4980;SDS011;2507;50.392;7.482;2024-01-11T11:40:56;45.23;;;27.80;;
4980;SDS011;2507;50.392;7.482;2024-01-11T11:43:23;45.83;;;27.03;;
4980;SDS011;2507;50.392;7.482;2024-01-11T11:45:49;43.37;;;26.47;;
4980;SDS011;2507;50.392;7.482;2024-01-11T11:53:36;44.57;;;27.60;;
4980;SDS011;2507;50.392;7.482;2024-01-11T11:56:02;44.60;;;27.30;;
4980;SDS011;2507;50.392;7.482;2024-01-11T11:58:29;43.20;;;27.80;;
4980;SDS011;2507;50.392;7.482;2024-01-11T12:00:55;40.07;;;26.07;;
4980;SDS011;2507;50.392;7.482;2024-01-11T12:03:32;45.90;;;27.90;;
4980;SDS011;2507;50.392;7.482;2024-01-11T12:06:08;42.33;;;27.03;;
4980;SDS011;2507;50.392;7.482;2024-01-11T12:08:35;50.30;;;29.27;;
4980;SDS011;2507;50.392;7.482;2024-01-11T12:11:01;41.20;;;28.00;;
4980;SDS011;2507;50.392;7.482;2024-01-11T12:13:27;51.77;;;28.50;;
4980;SDS011;2507;50.392;7.482;2024-01-11T12:15:53;47.63;;;27.87;;
4980;SDS011;2507;50.392;7.482;2024-01-11T12:18:18;45.60;;;28.37;;
4980;SDS011;2507;50.392;7.482;2024-01-11T12:20:44;46.97;;;27.50;;
4980;SDS011;2507;50.392;7.482;2024-01-11T12:23:09;50.63;;;28.77;;
4980;SDS011;2507;50.392;7.482;2024-01-11T12:25:35;47.63;;;28.33;;
4980;SDS011;2507;50.392;7.482;2024-01-11T12:28:01;49.10;;;28.13;;
4980;SDS011;2507;50.392;7.482;2024-01-11T12:30:26;44.83;;;28.93;;
4980;SDS011;2507;50.392;7.482;2024-01-11T12:32:55;42.80;;;27.57;;
4980;SDS011;2507;50.392;7.482;2024-01-11T12:35:21;49.00;;;29.70;;
4980;SDS011;2507;50.392;7.482;2024-01-11T12:37:55;42.90;;;27.07;;
4980;SDS011;2507;50.392;7.482;2024-01-11T12:40:24;44.13;;;27.90;;
4980;SDS011;2507;50.392;7.482;2024-01-11T12:42:49;47.20;;;28.20;;
4980;SDS011;2507;50.392;7.482;2024-01-11T12:45:16;43.77;;;26.80;;
4980;SDS011;2507;50.392;7.482;2024-01-11T12:47:42;42.00;;;27.10;;
4980;SDS011;2507;50.392;7.482;2024-01-11T12:50:08;41.67;;;27.03;;
4980;SDS011;2507;50.392;7.482;2024-01-11T12:52:33;48.23;;;26.93;;
4980;SDS011;2507;50.392;7.482;2024-01-11T12:54:59;40.90;;;26.40;;
4980;SDS011;2507;50.392;7.482;2024-01-11T12:57:24;42.43;;;26.33;;
4980;SDS011;2507;50.392;7.482;2024-01-11T12:59:50;41.73;;;25.37;;
4980;SDS011;2507;50.392;7.482;2024-01-11T13:02:16;42.07;;;26.80;;
4980;SDS011;2507;50.392;7.482;2024-01-11T13:04:44;43.53;;;26.97;;
4980;SDS011;2507;50.392;7.482;2024-01-11T13:07:11;37.33;;;24.80;;
4980;SDS011;2507;50.392;7.482;2024-01-11T13:09:37;35.47;;;24.93;;
4980;SDS011;2507;50.392;7.482;2024-01-11T13:12:03;38.37;;;23.57;;
4980;SDS011;2507;50.392;7.482;2024-01-11T13:14:28;36.27;;;23.40;;
4980;SDS011;2507;50.392;7.482;2024-01-11T13:16:53;36.23;;;24.27;;
4980;SDS011;2507;50.392;7.482;2024-01-11T13:19:19;44.77;;;26.20;;
4980;SDS011;2507;50.392;7.482;2024-01-11T13:21:44;37.40;;;25.07;;
4980;SDS011;2507;50.392;7.482;2024-01-11T13:24:09;39.97;;;24.07;;
4980;SDS011;2507;50.392;7.482;2024-01-11T13:26:35;38.20;;;22.63;;
4980;SDS011;2507;50.392;7.482;2024-01-11T13:29:04;33.40;;;21.60;;
4980;SDS011;2507;50.392;7.482;2024-01-11T13:31:30;34.53;;;23.47;;
4980;SDS011;2507;50.392;7.482;2024-01-11T13:33:56;38.37;;;23.77;;
4980;SDS011;2507;50.392;7.482;2024-01-11T13:36:21;36.90;;;23.73;;
4980;SDS011;2507;50.392;7.482;2024-01-11T13:38:47;34.67;;;23.00;;
4980;SDS011;2507;50.392;7.482;2024-01-11T13:41:12;36.87;;;23.60;;
4980;SDS011;2507;50.392;7.482;2024-01-11T13:43:38;34.60;;;22.20;;
4980;SDS011;2507;50.392;7.482;2024-01-11T13:46:03;37.60;;;23.57;;
4980;SDS011;2507;50.392;7.482;2024-01-11T13:48:29;32.10;;;22.23;;
4980;SDS011;2507;50.392;7.482;2024-01-11T13:50:56;37.93;;;24.63;;
4980;SDS011;2507;50.392;7.482;2024-01-11T13:53:22;44.67;;;27.27;;
4980;SDS011;2507;50.392;7.482;2024-01-11T13:55:47;47.50;;;26.23;;
4980;SDS011;2507;50.392;7.482;2024-01-11T13:58:13;40.00;;;25.07;;
4980;SDS011;2507;50.392;7.482;2024-01-11T14:00:38;38.03;;;22.83;;
4980;SDS011;2507;50.392;7.482;2024-01-11T14:03:04;40.70;;;25.87;;
4980;SDS011;2507;50.392;7.482;2024-01-11T14:05:30;42.60;;;22.63;;
4980;SDS011;2507;50.392;7.482;2024-01-11T14:07:55;40.03;;;24.33;;
4980;SDS011;2507;50.392;7.482;2024-01-11T14:10:23;37.97;;;24.60;;
4980;SDS011;2507;50.392;7.482;2024-01-11T14:12:49;35.43;;;23.33;;
4980;SDS011;2507;50.392;7.482;2024-01-11T14:15:14;35.50;;;23.20;;
4980;SDS011;2507;50.392;7.482;2024-01-11T14:17:40;35.70;;;24.37;;
4980;SDS011;2507;50.392;7.482;2024-01-11T14:20:05;37.30;;;23.90;;
4980;SDS011;2507;50.392;7.482;2024-01-11T14:22:36;38.17;;;23.13;;
4980;SDS011;2507;50.392;7.482;2024-01-11T14:25:02;36.70;;;23.90;;
4980;SDS011;2507;50.392;7.482;2024-01-11T14:27:28;38.80;;;23.20;;
4980;SDS011;2507;50.392;7.482;2024-01-11T14:29:55;37.57;;;24.87;;
4980;SDS011;2507;50.392;7.482;2024-01-11T14:32:20;35.50;;;22.67;;
4980;SDS011;2507;50.392;7.482;2024-01-11T14:34:46;34.90;;;23.10;;
4980;SDS011;2507;50.392;7.482;2024-01-11T14:37:11;39.67;;;24.50;;
4980;SDS011;2507;50.392;7.482;2024-01-11T14:39:37;37.63;;;25.23;;
4980;SDS011;2507;50.392;7.482;2024-01-11T14:42:03;35.43;;;23.93;;
4980;SDS011;2507;50.392;7.482;2024-01-11T14:44:28;37.70;;;23.90;;